createdAt,value
2023-02-25T00:01:20.662Z,17.60
2023-02-25T00:03:52.969Z,14.47
2023-02-25T00:06:22.276Z,15.37
2023-02-25T00:08:51.729Z,20.37
2023-02-25T00:11:20.879Z,15.73
2023-02-25T00:13:49.458Z,16.27
2023-02-25T00:16:17.993Z,16.37
2023-02-25T00:18:46.795Z,17.37
2023-02-25T00:21:17.804Z,11.93
2023-02-25T00:23:48.237Z,13.53
2023-02-25T00:26:17.710Z,14.87
2023-02-25T00:28:45.734Z,14.00
2023-02-25T00:31:16.414Z,11.27
2023-02-25T00:33:45.170Z,10.23
2023-02-25T00:36:20.185Z,12.60
2023-02-25T00:38:48.591Z,15.47
2023-02-25T00:41:19.031Z,11.93
2023-02-25T00:43:52.940Z,12.83
2023-02-25T00:46:21.707Z,10.23
2023-02-25T00:48:49.979Z,9.87
2023-02-25T00:51:21.856Z,12.90
2023-02-25T00:53:49.862Z,12.07
2023-02-25T00:56:20.321Z,7.30
2023-02-25T00:58:50.779Z,9.47
2023-02-25T01:01:21.555Z,11.40
2023-02-25T01:03:51.377Z,8.97
2023-02-25T01:06:21.697Z,10.97
2023-02-25T01:08:50.316Z,10.63
2023-02-25T01:11:21.961Z,11.20
2023-02-25T01:13:50.846Z,12.83
2023-02-25T01:16:21.403Z,14.63
2023-02-25T01:18:52.463Z,11.83
2023-02-25T01:21:27.030Z,14.67
2023-02-25T01:23:58.600Z,6.77
2023-02-25T01:26:27.587Z,7.83
2023-02-25T01:28:56.207Z,5.87
2023-02-25T01:31:29.347Z,5.27
2023-02-25T01:33:58.745Z,7.20
2023-02-25T01:36:28.948Z,4.87
2023-02-25T01:38:57.105Z,3.53
2023-02-25T01:41:25.742Z,8.27
2023-02-25T01:44:09.178Z,5.87
2023-02-25T01:46:37.901Z,10.27
2023-02-25T01:49:10.696Z,5.67
2023-02-25T01:51:40.475Z,9.60
2023-02-25T01:54:11.469Z,4.67
2023-02-25T01:56:42.539Z,5.17
2023-02-25T01:59:11.290Z,7.47
2023-02-25T02:01:40.496Z,5.20
2023-02-25T02:04:11.630Z,5.90
2023-02-25T02:06:42.722Z,4.87
2023-02-25T02:09:14.324Z,6.43
2023-02-25T02:11:42.826Z,5.10
2023-02-25T02:14:15.562Z,6.30
2023-02-25T02:17:19.858Z,4.00
2023-02-25T02:20:13.020Z,8.87
2023-02-25T02:23:05.343Z,5.47
2023-02-25T02:25:58.773Z,6.70
2023-02-25T02:28:57.841Z,9.40
2023-02-25T02:31:49.326Z,7.23
2023-02-25T02:34:29.716Z,6.20
2023-02-25T02:37:08.710Z,7.30
2023-02-25T02:39:50.760Z,3.87
2023-02-25T02:42:29.697Z,8.40
2023-02-25T02:45:03.959Z,3.20
2023-02-25T02:47:35.939Z,3.43
2023-02-25T02:50:07.306Z,3.07
2023-02-25T02:52:40.704Z,5.00
2023-02-25T02:55:22.205Z,3.80
2023-02-25T02:57:52.646Z,4.63
2023-02-25T03:00:26.373Z,4.90
2023-02-25T03:02:59.496Z,4.73
2023-02-25T03:05:30.508Z,4.07
2023-02-25T03:08:08.396Z,6.23
2023-02-25T03:10:36.489Z,3.27
2023-02-25T03:13:04.840Z,2.33
2023-02-25T03:15:35.050Z,5.73
2023-02-25T03:18:11.747Z,4.77
2023-02-25T03:20:43.292Z,1.93
2023-02-25T03:23:15.899Z,1.20
2023-02-25T03:25:48.321Z,3.23
2023-02-25T03:28:26.514Z,3.20
2023-02-25T03:31:01.322Z,2.23
2023-02-25T03:33:35.611Z,1.53
2023-02-25T03:36:09.760Z,4.97
2023-02-25T03:38:42.066Z,2.20
2023-02-25T03:41:12.627Z,1.07
2023-02-25T03:43:46.036Z,1.33
2023-02-25T03:46:15.448Z,6.37
2023-02-25T03:48:46.100Z,4.07
2023-02-25T03:51:17.417Z,2.80
2023-02-25T03:53:45.565Z,3.67
2023-02-25T03:56:14.104Z,2.60
2023-02-25T03:58:43.109Z,6.00
2023-02-25T04:01:17.089Z,2.20
2023-02-25T04:03:46.769Z,3.60
2023-02-25T04:06:15.428Z,4.37
2023-02-25T04:08:43.631Z,2.20
2023-02-25T04:11:11.606Z,4.20
2023-02-25T04:13:39.592Z,3.60
2023-02-25T04:16:09.296Z,3.93
2023-02-25T04:18:37.537Z,4.37
2023-02-25T04:21:08.501Z,3.50
2023-02-25T04:23:36.935Z,4.03
2023-02-25T04:26:05.155Z,3.37
2023-02-25T04:28:33.114Z,3.30
2023-02-25T04:31:01.185Z,2.43
2023-02-25T04:33:29.219Z,2.60
2023-02-25T04:35:57.665Z,3.67
2023-02-25T04:38:26.961Z,1.47
2023-02-25T04:40:54.945Z,2.53
2023-02-25T04:43:22.884Z,1.63
2023-02-25T04:45:50.831Z,1.93
2023-02-25T04:48:24.131Z,1.37
2023-02-25T04:50:52.136Z,3.13
2023-02-25T04:53:20.184Z,3.60
2023-02-25T04:55:50.017Z,1.10
2023-02-25T04:58:18.003Z,1.20
2023-02-25T05:00:49.350Z,2.37
2023-02-25T05:03:17.418Z,5.70
2023-02-25T05:05:45.379Z,2.03
2023-02-25T05:08:13.360Z,4.17
2023-02-25T05:10:41.317Z,2.70
2023-02-25T05:13:10.700Z,1.13
2023-02-25T05:15:38.738Z,1.73
2023-02-25T05:18:07.053Z,2.60
2023-02-25T05:20:35.493Z,1.10
2023-02-25T05:23:03.538Z,3.73
2023-02-25T05:25:33.672Z,0.90
2023-02-25T05:28:01.793Z,1.20
2023-02-25T05:30:31.155Z,1.17
2023-02-25T05:32:59.190Z,1.33
2023-02-25T05:35:27.233Z,1.20
2023-02-25T05:37:55.801Z,1.43
2023-02-25T05:40:23.717Z,1.33
2023-02-25T05:42:51.712Z,1.43
2023-02-25T05:45:19.808Z,1.73
2023-02-25T05:47:49.147Z,0.80
2023-02-25T05:50:17.182Z,1.17
2023-02-25T05:52:45.130Z,3.10
2023-02-25T05:55:13.078Z,4.10
2023-02-25T05:57:41.066Z,1.70
2023-02-25T06:00:10.507Z,1.37
2023-02-25T06:02:38.573Z,1.40
2023-02-25T06:05:09.195Z,0.73
2023-02-25T06:07:37.414Z,2.03
2023-02-25T06:10:06.166Z,1.57
2023-02-25T06:12:35.187Z,2.53
2023-02-25T06:15:03.122Z,1.20
2023-02-25T06:17:31.110Z,1.70
2023-02-25T06:19:59.042Z,1.63
2023-02-25T06:22:28.414Z,2.00
2023-02-25T06:24:56.364Z,2.53
2023-02-25T06:27:24.421Z,2.93
2023-02-25T06:29:52.422Z,1.10
2023-02-25T06:32:20.618Z,1.23
2023-02-25T06:34:48.722Z,1.07
2023-02-25T06:37:16.749Z,2.97
2023-02-25T06:39:46.070Z,0.77
2023-02-25T06:42:14.002Z,0.77
2023-02-25T06:44:41.972Z,1.40
2023-02-25T06:47:09.979Z,0.87
2023-02-25T06:49:37.955Z,1.97
2023-02-25T06:52:05.908Z,1.70
2023-02-25T06:54:33.835Z,1.03
2023-02-25T06:57:03.179Z,1.03
2023-02-25T06:59:31.218Z,0.83
2023-02-25T07:01:59.126Z,1.37
2023-02-25T07:04:27.139Z,1.07
2023-02-25T07:06:55.968Z,0.70
2023-02-25T07:09:23.962Z,2.40
2023-02-25T07:11:52.144Z,2.70
2023-02-25T07:14:21.468Z,1.30
2023-02-25T07:16:49.694Z,1.47
2023-02-25T07:19:17.735Z,0.83
2023-02-25T07:21:46.383Z,1.87
2023-02-25T07:24:14.848Z,0.87
2023-02-25T07:26:42.805Z,2.50
2023-02-25T07:29:10.852Z,0.80
2023-02-25T07:31:40.661Z,2.00
2023-02-25T07:34:09.525Z,1.40
2023-02-25T07:36:38.023Z,0.93
2023-02-25T07:39:07.374Z,3.57
2023-02-25T07:41:35.806Z,3.70
2023-02-25T07:44:03.955Z,0.80
2023-02-25T07:46:32.656Z,2.37
2023-02-25T07:49:02.122Z,1.60
2023-02-25T07:51:30.274Z,1.10
2023-02-25T07:53:58.889Z,1.63
2023-02-25T07:56:29.101Z,0.60
2023-02-25T07:58:57.127Z,0.97
2023-02-25T08:01:27.105Z,1.37
2023-02-25T08:03:56.560Z,0.57
2023-02-25T08:06:26.526Z,3.17
2023-02-25T08:08:55.254Z,0.87
2023-02-25T08:11:26.053Z,0.60
2023-02-25T08:13:54.456Z,0.97
2023-02-25T08:16:23.533Z,0.63
2023-02-25T08:18:52.971Z,1.03
2023-02-25T08:21:24.191Z,1.27
2023-02-25T08:23:54.716Z,0.80
2023-02-25T08:26:25.537Z,2.63
2023-02-25T08:28:53.693Z,0.60
2023-02-25T08:31:22.779Z,1.00
2023-02-25T08:33:52.842Z,1.23
2023-02-25T08:36:23.690Z,0.60
2023-02-25T08:38:53.231Z,1.40
2023-02-25T08:41:23.072Z,0.87
2023-02-25T08:43:54.382Z,1.30
2023-02-25T08:46:23.690Z,4.63
2023-02-25T08:48:53.164Z,1.10
2023-02-25T08:51:23.279Z,1.77
2023-02-25T08:53:52.825Z,1.47
2023-02-25T08:56:20.845Z,0.80
2023-02-25T08:58:48.803Z,2.27
2023-02-25T09:01:18.264Z,2.83
2023-02-25T09:03:52.298Z,1.27
2023-02-25T09:06:22.108Z,1.07
2023-02-25T09:08:50.128Z,0.97
2023-02-25T09:11:21.592Z,1.20
2023-02-25T09:13:49.784Z,1.10
2023-02-25T09:16:18.030Z,2.63
2023-02-25T09:18:46.137Z,1.37
2023-02-25T09:21:14.749Z,1.53
2023-02-25T09:23:42.953Z,0.97
2023-02-25T09:26:11.179Z,2.43
2023-02-25T09:28:40.707Z,1.53
2023-02-25T09:31:08.708Z,1.60
2023-02-25T09:33:38.088Z,2.07
2023-02-25T09:36:08.512Z,0.93
2023-02-25T09:38:36.813Z,2.33
2023-02-25T09:41:05.547Z,2.37
2023-02-25T09:43:40.473Z,1.07
2023-02-25T09:46:13.707Z,1.47
2023-02-25T09:48:46.398Z,1.30
2023-02-25T09:51:22.413Z,3.87
2023-02-25T09:53:55.259Z,8.90
2023-02-25T09:56:27.690Z,1.50
2023-02-25T09:58:58.100Z,2.10
2023-02-25T10:01:34.267Z,2.50
2023-02-25T10:04:09.403Z,1.03
2023-02-25T10:06:40.271Z,2.83
2023-02-25T10:09:19.841Z,1.27
2023-02-25T10:11:53.674Z,1.23
2023-02-25T10:14:44.872Z,1.40
2023-02-25T10:17:25.625Z,1.00
2023-02-25T10:20:10.120Z,1.20
2023-02-25T10:22:48.238Z,0.70
2023-02-25T10:25:20.853Z,2.27
2023-02-25T10:27:53.729Z,0.87
2023-02-25T10:30:27.351Z,1.50
2023-02-25T10:32:57.849Z,0.57
2023-02-25T10:35:28.640Z,1.00
2023-02-25T10:37:57.215Z,1.00
2023-02-25T10:40:29.299Z,1.13
2023-02-25T10:43:00.928Z,1.83
2023-02-25T10:45:31.076Z,1.27
2023-02-25T10:48:07.727Z,0.83
2023-02-25T10:50:45.640Z,0.80
2023-02-25T10:53:16.691Z,0.77
2023-02-25T10:55:52.663Z,1.20
2023-02-25T10:58:33.336Z,2.07
2023-02-25T11:01:05.529Z,1.00
2023-02-25T11:03:39.481Z,0.70
2023-02-25T11:06:29.866Z,0.50
2023-02-25T11:08:59.426Z,0.60
2023-02-25T11:11:31.877Z,0.60
2023-02-25T11:14:06.605Z,0.83
2023-02-25T11:16:37.386Z,0.70
2023-02-25T11:19:16.107Z,0.60
2023-02-25T11:21:44.937Z,0.50
2023-02-25T11:24:16.550Z,1.53
2023-02-25T11:26:46.597Z,0.73
2023-02-25T11:29:18.663Z,0.40
2023-02-25T11:31:49.492Z,0.40
2023-02-25T11:34:23.504Z,1.00
2023-02-25T11:36:52.581Z,1.83
2023-02-25T11:39:23.260Z,0.93
2023-02-25T11:41:53.190Z,0.80
2023-02-25T11:44:26.650Z,0.70
2023-02-25T11:47:02.394Z,0.50
2023-02-25T11:49:45.464Z,0.57
2023-02-25T11:52:19.400Z,0.50
2023-02-25T11:54:56.735Z,0.50
2023-02-25T11:57:36.306Z,0.40
2023-02-25T12:00:25.451Z,0.50
2023-02-25T12:03:11.336Z,0.73
2023-02-25T12:05:57.098Z,0.40
2023-02-25T12:08:45.952Z,0.30
2023-02-25T12:12:06.323Z,0.70
2023-02-25T12:15:06.874Z,0.37
2023-02-25T12:18:06.834Z,0.30
2023-02-25T12:21:20.143Z,0.50
2023-02-25T12:24:23.485Z,0.40
2023-02-25T12:27:10.650Z,0.80
2023-02-25T12:30:22.518Z,0.40
2023-02-25T12:33:02.603Z,0.20
2023-02-25T12:36:06.892Z,0.63
2023-02-25T12:39:07.090Z,1.10
2023-02-25T12:41:41.424Z,1.30
2023-02-25T12:44:42.057Z,0.50
2023-02-25T12:47:24.216Z,1.73
2023-02-25T12:50:29.412Z,0.40
2023-02-25T12:53:15.232Z,0.40
2023-02-25T12:56:19.568Z,1.30
2023-02-25T12:59:12.245Z,1.93
2023-02-25T13:01:55.559Z,0.43
2023-02-25T13:04:56.056Z,0.70
2023-02-25T13:07:52.947Z,1.50
2023-02-25T13:10:38.172Z,2.20
2023-02-25T13:13:57.664Z,0.37
2023-02-25T13:16:44.198Z,0.67
2023-02-25T13:19:36.391Z,0.77
2023-02-25T13:22:13.530Z,0.30
2023-02-25T13:24:51.367Z,2.13
2023-02-25T13:27:43.776Z,0.30
2023-02-25T13:30:26.634Z,1.70
2023-02-25T13:33:09.119Z,0.27
2023-02-25T13:35:48.789Z,0.67
2023-02-25T13:38:35.299Z,0.30
2023-02-25T13:41:19.216Z,0.30
2023-02-25T13:44:17.016Z,0.60
2023-02-25T13:47:01.164Z,0.27
2023-02-25T13:49:50.608Z,1.10
2023-02-25T13:52:27.669Z,1.27
2023-02-25T13:55:25.009Z,0.20
2023-02-25T13:58:06.794Z,0.40
2023-02-25T14:01:01.796Z,0.33
2023-02-25T14:04:01.358Z,0.40
2023-02-25T14:06:44.220Z,0.50
2023-02-25T14:09:28.015Z,0.77
2023-02-25T14:12:12.455Z,2.30
2023-02-25T14:15:13.162Z,0.40
2023-02-25T14:18:11.038Z,1.03
2023-02-25T14:20:46.576Z,0.83
2023-02-25T14:23:26.126Z,2.27
2023-02-25T14:26:15.131Z,1.60
2023-02-25T14:28:49.935Z,1.03
2023-02-25T14:31:26.457Z,1.87
2023-02-25T14:34:19.375Z,0.50
2023-02-25T14:37:16.546Z,0.60
2023-02-25T14:40:00.015Z,0.80
2023-02-25T14:42:53.751Z,0.40
2023-02-25T14:45:25.248Z,1.90
2023-02-25T14:47:59.496Z,1.13
2023-02-25T14:50:32.256Z,0.93
2023-02-25T14:53:20.935Z,0.37
2023-02-25T14:56:11.798Z,0.60
2023-02-25T14:59:08.516Z,0.77
2023-02-25T15:02:01.987Z,2.43
2023-02-25T15:04:54.969Z,2.97
2023-02-25T15:07:38.434Z,1.57
2023-02-25T15:10:31.616Z,2.20
2023-02-25T15:13:41.735Z,1.40
2023-02-25T15:16:50.627Z,0.67
2023-02-25T15:19:44.844Z,0.60
2023-02-25T15:22:24.843Z,1.33
2023-02-25T15:24:54.015Z,0.50
2023-02-25T15:27:45.769Z,1.77
2023-02-25T15:30:18.214Z,0.40
2023-02-25T15:33:08.577Z,0.20
2023-02-25T15:35:58.865Z,0.30
2023-02-25T15:38:46.070Z,1.27
2023-02-25T15:41:39.412Z,0.53
2023-02-25T15:44:41.600Z,1.17
2023-02-25T15:47:30.897Z,0.47
2023-02-25T15:49:59.949Z,0.80
2023-02-25T15:52:54.315Z,0.80
2023-02-25T15:55:38.217Z,0.97
2023-02-25T15:58:51.536Z,1.23
2023-02-25T16:01:46.446Z,0.80
2023-02-25T16:04:45.692Z,0.63
2023-02-25T16:07:19.434Z,1.47
2023-02-25T16:09:52.828Z,1.10
2023-02-25T16:12:21.000Z,0.67
2023-02-25T16:14:50.810Z,1.30
2023-02-25T16:17:21.623Z,0.60
2023-02-25T16:19:54.980Z,0.87
2023-02-25T16:22:26.141Z,0.30
2023-02-25T16:24:56.498Z,0.70
2023-02-25T16:27:42.047Z,0.60
2023-02-25T16:30:17.041Z,1.50
2023-02-25T16:32:54.905Z,1.13
2023-02-25T16:35:29.068Z,0.60
2023-02-25T16:38:06.410Z,0.83
2023-02-25T16:40:37.897Z,1.63
2023-02-25T16:43:07.137Z,0.60
2023-02-25T16:45:45.392Z,1.60
2023-02-25T16:48:18.549Z,0.63
2023-02-25T16:50:50.974Z,0.83
2023-02-25T16:53:22.460Z,1.67
2023-02-25T16:55:51.725Z,1.03
2023-02-25T16:58:25.327Z,0.70
2023-02-25T17:00:55.405Z,1.00
2023-02-25T17:03:25.642Z,1.80
2023-02-25T17:06:04.132Z,1.63
2023-02-25T17:08:32.102Z,1.73
2023-02-25T17:11:02.506Z,1.60
2023-02-25T17:13:34.083Z,2.23
2023-02-25T17:16:04.020Z,1.00
2023-02-25T17:18:35.652Z,1.27
2023-02-25T17:21:07.575Z,0.60
2023-02-25T17:23:40.494Z,1.03
2023-02-25T17:26:12.495Z,0.63
2023-02-25T17:28:40.740Z,2.20
2023-02-25T17:31:11.874Z,1.07
2023-02-25T17:33:48.503Z,1.03
2023-02-25T17:36:20.701Z,1.60
2023-02-25T17:38:51.252Z,1.77
2023-02-25T17:41:21.023Z,4.03
2023-02-25T17:43:49.139Z,1.27
2023-02-25T17:46:25.299Z,1.40
2023-02-25T17:48:56.462Z,0.60
2023-02-25T17:51:33.540Z,1.87
2023-02-25T17:54:07.494Z,1.30
2023-02-25T17:56:36.517Z,0.93
2023-02-25T17:59:07.363Z,1.23
2023-02-25T18:01:48.576Z,0.87
2023-02-25T18:04:26.373Z,1.63
2023-02-25T18:06:56.355Z,0.40
2023-02-25T18:09:37.975Z,2.10
2023-02-25T18:12:09.115Z,1.10
2023-02-25T18:14:39.512Z,0.70
2023-02-25T18:17:22.729Z,0.87
2023-02-25T18:19:50.837Z,0.80
2023-02-25T18:22:33.900Z,1.63
2023-02-25T18:25:04.198Z,0.97
2023-02-25T18:27:33.712Z,0.70
2023-02-25T18:30:18.224Z,1.20
2023-02-25T18:32:46.660Z,1.87
2023-02-25T18:35:15.280Z,0.47
2023-02-25T18:37:45.649Z,1.63
2023-02-25T18:40:17.939Z,1.53
2023-02-25T18:42:45.875Z,1.07
2023-02-25T18:45:15.944Z,1.10
2023-02-25T18:47:44.026Z,1.40
2023-02-25T18:50:13.005Z,9.70
2023-02-25T18:52:41.945Z,8.67
2023-02-25T18:55:18.387Z,6.13
2023-02-25T18:57:46.454Z,4.27
2023-02-25T19:00:16.056Z,5.77
2023-02-25T19:02:49.297Z,7.30
2023-02-25T19:05:18.070Z,9.60
2023-02-25T19:07:46.476Z,4.20
2023-02-25T19:10:19.536Z,2.50
2023-02-25T19:12:50.469Z,5.80
2023-02-25T19:15:20.614Z,4.83
2023-02-25T19:17:49.644Z,3.03
2023-02-25T19:20:19.781Z,5.20
2023-02-25T19:22:49.344Z,7.50
2023-02-25T19:25:22.097Z,13.50
2023-02-25T19:27:50.184Z,28.23
2023-02-25T19:30:20.067Z,24.70
2023-02-25T19:32:48.076Z,3.93
2023-02-25T19:35:16.220Z,2.03
2023-02-25T19:37:45.096Z,3.53
2023-02-25T19:40:16.832Z,11.33
2023-02-25T19:42:47.022Z,13.70
2023-02-25T19:45:17.695Z,4.67
2023-02-25T19:47:46.369Z,4.87
2023-02-25T19:50:15.409Z,3.40
2023-02-25T19:52:44.175Z,2.17
2023-02-25T19:55:13.926Z,2.70
2023-02-25T19:57:42.507Z,2.30
2023-02-25T20:00:20.269Z,3.47
2023-02-25T20:02:48.677Z,2.67
2023-02-25T20:05:16.659Z,3.07
2023-02-25T20:07:44.788Z,2.30
2023-02-25T20:10:14.677Z,1.20
2023-02-25T20:12:44.505Z,3.73
2023-02-25T20:15:15.761Z,4.67
2023-02-25T20:17:45.238Z,0.77
2023-02-25T20:20:14.855Z,1.30
2023-02-25T20:22:43.968Z,1.67
2023-02-25T20:25:15.125Z,1.23
2023-02-25T20:27:43.533Z,1.67
2023-02-25T20:30:16.048Z,1.33
2023-02-25T20:32:45.195Z,1.20
2023-02-25T20:35:17.196Z,1.97
2023-02-25T20:37:55.090Z,1.43
2023-02-25T20:40:23.333Z,2.70
2023-02-25T20:42:51.503Z,1.47
2023-02-25T20:45:22.019Z,1.33
2023-02-25T20:47:50.255Z,3.63
2023-02-25T20:50:21.441Z,4.23
2023-02-25T20:52:49.586Z,5.70
2023-02-25T20:55:17.732Z,6.60
2023-02-25T20:57:45.755Z,4.30
2023-02-25T21:00:16.343Z,8.87
2023-02-25T21:02:45.956Z,1.47
2023-02-25T21:05:13.949Z,3.37
2023-02-25T21:07:41.905Z,2.83
2023-02-25T21:10:11.341Z,2.53
2023-02-25T21:12:39.955Z,2.97
2023-02-25T21:15:09.082Z,2.43
2023-02-25T21:17:37.081Z,2.73
2023-02-25T21:20:08.643Z,1.70
2023-02-25T21:22:36.992Z,2.27
2023-02-25T21:25:05.737Z,4.53
2023-02-25T21:27:33.820Z,1.20
2023-02-25T21:30:01.827Z,1.93
2023-02-25T21:32:29.793Z,3.73
2023-02-25T21:34:57.812Z,4.37
2023-02-25T21:37:28.038Z,1.30
2023-02-25T21:39:55.996Z,1.60
2023-02-25T21:42:24.315Z,2.47
2023-02-25T21:44:52.272Z,2.63
2023-02-25T21:47:20.209Z,3.93
2023-02-25T21:49:48.269Z,4.83
2023-02-25T21:52:16.520Z,4.00
2023-02-25T21:54:45.908Z,2.63
2023-02-25T21:57:13.908Z,2.30
2023-02-25T21:59:41.901Z,3.27
2023-02-25T22:02:11.408Z,4.50
2023-02-25T22:04:39.449Z,3.10
2023-02-25T22:07:07.433Z,2.43
2023-02-25T22:09:35.414Z,2.47
2023-02-25T22:12:04.865Z,3.00
2023-02-25T22:14:32.907Z,2.43
2023-02-25T22:17:02.063Z,1.97
2023-02-25T22:19:30.337Z,1.63
2023-02-25T22:21:58.295Z,1.83
2023-02-25T22:24:26.347Z,1.53
2023-02-25T22:26:54.297Z,2.73
2023-02-25T22:29:23.897Z,3.93
2023-02-25T22:31:52.133Z,8.63
2023-02-25T22:34:20.381Z,23.37
2023-02-25T22:36:48.375Z,33.77
2023-02-25T22:39:16.443Z,23.20
2023-02-25T22:41:44.797Z,16.70
2023-02-25T22:44:12.793Z,11.03
2023-02-25T22:46:42.253Z,11.87
2023-02-25T22:49:11.650Z,8.50
2023-02-25T22:51:42.181Z,4.03
2023-02-25T22:54:11.138Z,1.73
2023-02-25T22:56:39.344Z,2.53
2023-02-25T22:59:07.967Z,2.63
2023-02-25T23:01:36.345Z,2.07
2023-02-25T23:04:07.851Z,4.00
2023-02-25T23:06:43.288Z,3.47
2023-02-25T23:09:12.965Z,2.83
2023-02-25T23:11:42.611Z,7.60
2023-02-25T23:14:10.815Z,7.53
2023-02-25T23:16:40.778Z,3.10
2023-02-25T23:19:12.870Z,3.27
2023-02-25T23:21:41.416Z,4.03
2023-02-25T23:24:13.620Z,4.20
2023-02-25T23:26:42.975Z,4.13
2023-02-25T23:29:12.633Z,4.40
2023-02-25T23:31:44.270Z,4.53
2023-02-25T23:34:15.905Z,5.53
2023-02-25T23:36:45.064Z,1.77
2023-02-25T23:39:15.505Z,3.23
2023-02-25T23:41:43.507Z,6.37
2023-02-25T23:44:13.249Z,4.50
2023-02-25T23:46:44.021Z,2.07
2023-02-25T23:49:15.747Z,1.20
2023-02-25T23:51:44.995Z,4.90
2023-02-25T23:54:15.885Z,2.57
2023-02-25T23:56:43.970Z,4.30
2023-02-25T23:59:12.438Z,3.57
